createdAt,value
2023-07-25T00:02:26.278Z,100334.10
2023-07-25T00:06:44.038Z,100324.45
2023-07-25T00:09:19.752Z,100328.85
2023-07-25T00:11:48.549Z,100327.27
2023-07-25T00:14:23.386Z,100328.52
2023-07-25T00:16:54.223Z,100329.30
2023-07-25T00:19:29.238Z,100329.96
2023-07-25T00:22:20.176Z,100326.30
2023-07-25T00:25:02.661Z,100324.08
2023-07-25T00:27:39.548Z,100320.88
2023-07-25T00:30:22.383Z,100321.83
2023-07-25T00:33:05.927Z,100322.01
2023-07-25T00:35:52.000Z,100325.56
2023-07-25T00:38:24.984Z,100321.86
2023-07-25T00:41:01.140Z,100325.80
2023-07-25T00:43:36.919Z,100326.77
2023-07-25T00:46:10.834Z,100325.37
2023-07-25T00:49:24.806Z,100320.52
2023-07-25T00:52:00.109Z,100320.06
2023-07-25T00:54:35.464Z,100319.22
2023-07-25T00:57:18.263Z,100319.38
2023-07-25T00:59:53.803Z,100321.71
2023-07-25T01:02:35.590Z,100326.07
2023-07-25T01:05:07.257Z,100328.85
2023-07-25T01:07:40.360Z,100328.27
2023-07-25T01:10:14.578Z,100331.17
2023-07-25T01:12:52.354Z,100329.94
2023-07-25T01:15:21.791Z,100329.79
2023-07-25T01:18:06.158Z,100330.13
2023-07-25T01:20:37.151Z,100331.71
2023-07-25T01:23:25.923Z,100329.17
2023-07-25T01:26:15.907Z,100326.76
2023-07-25T01:28:49.715Z,100324.30
2023-07-25T01:31:36.630Z,100322.83
2023-07-25T01:34:09.851Z,100320.70
2023-07-25T01:36:53.065Z,100317.26
2023-07-25T01:39:28.953Z,100315.16
2023-07-25T01:42:17.788Z,100310.85
2023-07-25T01:44:58.544Z,100312.95
2023-07-25T01:47:35.050Z,100308.79
2023-07-25T01:50:06.063Z,100308.77
2023-07-25T01:52:41.550Z,100315.52
2023-07-25T01:55:15.737Z,100318.14
2023-07-25T01:57:56.791Z,100317.75
2023-07-25T02:00:53.037Z,100323.12
2023-07-25T02:03:36.867Z,100327.70
2023-07-25T02:06:15.587Z,100327.42
2023-07-25T02:08:43.782Z,100328.16
2023-07-25T02:11:16.458Z,100323.52
2023-07-25T02:13:57.119Z,100322.57
2023-07-25T02:16:29.293Z,100323.02
2023-07-25T02:19:00.712Z,100319.11
2023-07-25T02:21:45.913Z,100321.56
2023-07-25T02:24:17.490Z,100325.33
2023-07-25T02:27:05.617Z,100332.31
2023-07-25T02:30:07.814Z,100332.02
2023-07-25T02:32:41.522Z,100324.70
2023-07-25T02:35:15.900Z,100322.17
2023-07-25T02:38:04.458Z,100323.45
2023-07-25T02:40:38.182Z,100317.26
2023-07-25T02:43:17.913Z,100316.50
2023-07-25T02:45:54.294Z,100316.59
2023-07-25T02:48:40.789Z,100321.16
2023-07-25T02:51:14.085Z,100331.27
2023-07-25T02:53:45.846Z,100337.23
2023-07-25T02:56:28.855Z,100339.99
2023-07-25T02:59:25.304Z,100343.67
2023-07-25T03:02:07.025Z,100342.23
2023-07-25T03:04:42.952Z,100349.20
2023-07-25T03:07:11.260Z,100359.24
2023-07-25T03:10:07.863Z,100359.30
2023-07-25T03:12:36.042Z,100354.23
2023-07-25T03:15:17.682Z,100360.59
2023-07-25T03:17:57.527Z,100358.31
2023-07-25T03:20:33.944Z,100356.48
2023-07-25T03:23:15.538Z,100362.95
2023-07-25T03:26:01.053Z,100362.13
2023-07-25T03:28:31.038Z,100367.83
2023-07-25T03:31:07.135Z,100375.30
2023-07-25T03:33:53.600Z,100382.75
2023-07-25T03:36:25.619Z,100389.83
2023-07-25T03:38:59.578Z,100390.94
2023-07-25T03:41:32.712Z,100392.44
2023-07-25T03:44:04.546Z,100393.81
2023-07-25T03:46:47.981Z,100399.20
2023-07-25T03:49:24.667Z,100409.27
2023-07-25T03:52:00.121Z,100415.45
2023-07-25T03:54:40.133Z,100415.70
2023-07-25T03:57:33.216Z,100420.48
2023-07-25T04:00:15.004Z,100418.92
2023-07-25T04:03:09.036Z,100422.89
2023-07-25T04:06:09.090Z,100428.22
2023-07-25T04:08:59.711Z,100431.90
2023-07-25T04:11:37.086Z,100439.03
2023-07-25T04:14:38.474Z,100451.04
2023-07-25T04:17:24.250Z,100470.17
2023-07-25T04:19:54.059Z,100494.28
2023-07-25T04:22:30.306Z,100504.88
2023-07-25T04:25:13.534Z,100510.08
2023-07-25T04:27:51.353Z,100508.36
2023-07-25T04:30:26.594Z,100510.41
2023-07-25T04:33:05.710Z,100509.17
2023-07-25T04:35:58.781Z,100508.45
2023-07-25T04:38:31.520Z,100504.55
2023-07-25T04:41:16.224Z,100499.88
2023-07-25T04:43:48.993Z,100492.06
2023-07-25T04:46:22.524Z,100485.01
2023-07-25T04:49:08.303Z,100478.06
2023-07-25T04:51:44.451Z,100470.16
2023-07-25T04:54:26.147Z,100463.65
2023-07-25T04:57:00.462Z,100450.79
2023-07-25T05:00:17.171Z,100439.82
2023-07-25T05:02:49.990Z,100432.27
2023-07-25T05:05:31.955Z,100431.05
2023-07-25T05:08:19.296Z,100425.23
2023-07-25T05:11:12.849Z,100407.45
2023-07-25T05:13:45.669Z,100395.39
2023-07-25T05:16:20.425Z,100387.23
2023-07-25T05:18:56.420Z,100379.88
2023-07-25T05:21:31.724Z,100371.81
2023-07-25T05:24:25.274Z,100360.45
2023-07-25T05:27:21.056Z,100355.70
2023-07-25T05:30:00.309Z,100351.64
2023-07-25T05:32:41.680Z,100346.60
2023-07-25T05:35:13.658Z,100341.73
2023-07-25T05:37:55.948Z,100340.60
2023-07-25T05:40:28.627Z,100331.83
2023-07-25T05:43:12.375Z,100329.58
2023-07-25T05:45:58.057Z,100324.96
2023-07-25T05:48:48.551Z,100321.17
2023-07-25T05:51:20.307Z,100318.23
2023-07-25T05:53:58.415Z,100310.38
2023-07-25T05:56:38.276Z,100303.11
2023-07-25T05:59:09.205Z,100295.56
2023-07-25T06:01:42.219Z,100291.75
2023-07-25T06:04:10.671Z,100283.90
2023-07-25T06:06:43.662Z,100281.38
2023-07-25T06:09:14.913Z,100271.49
2023-07-25T06:12:01.136Z,100259.07
2023-07-25T06:14:33.895Z,100251.59
2023-07-25T06:17:05.437Z,100254.95
2023-07-25T06:19:33.322Z,100252.98
2023-07-25T06:22:13.981Z,100256.59
2023-07-25T06:24:42.636Z,100253.30
2023-07-25T06:27:15.455Z,100252.66
2023-07-25T06:29:43.417Z,100247.73
2023-07-25T06:32:14.114Z,100251.46
2023-07-25T06:34:42.129Z,100241.33
2023-07-25T06:37:10.211Z,100233.80
2023-07-25T06:39:41.520Z,100226.34
2023-07-25T06:42:14.432Z,100221.33
2023-07-25T06:44:43.530Z,100221.04
2023-07-25T06:47:13.667Z,100222.07
2023-07-25T06:49:41.604Z,100226.22
2023-07-25T06:52:09.490Z,100230.88
2023-07-25T06:54:41.860Z,100229.47
2023-07-25T06:57:09.737Z,100227.65
2023-07-25T06:59:37.805Z,100223.77
2023-07-25T07:02:05.711Z,100223.67
2023-07-25T07:04:36.814Z,100215.95
2023-07-25T07:07:05.253Z,100210.38
2023-07-25T07:09:38.095Z,100203.34
2023-07-25T07:12:20.181Z,100203.95
2023-07-25T07:14:52.555Z,100193.36
2023-07-25T07:17:25.291Z,100186.53
2023-07-25T07:19:55.980Z,100177.85
2023-07-25T07:22:35.023Z,100175.25
2023-07-25T07:25:17.519Z,100181.70
2023-07-25T07:27:45.383Z,100190.84
2023-07-25T07:30:19.604Z,100190.60
2023-07-25T07:32:48.725Z,100190.25
2023-07-25T07:35:22.827Z,100188.61
2023-07-25T07:37:50.797Z,100181.92
2023-07-25T07:40:27.759Z,100173.83
2023-07-25T07:43:02.290Z,100175.21
2023-07-25T07:45:35.562Z,100171.09
2023-07-25T07:48:03.503Z,100172.07
2023-07-25T07:50:34.572Z,100170.98
2023-07-25T07:53:02.462Z,100168.05
2023-07-25T07:55:30.431Z,100166.30
2023-07-25T07:58:03.930Z,100161.81
2023-07-25T08:00:35.284Z,100161.31
2023-07-25T08:03:03.905Z,100163.36
2023-07-25T08:05:46.801Z,100163.77
2023-07-25T08:08:19.565Z,100172.48
2023-07-25T08:10:47.408Z,100165.17
2023-07-25T08:13:15.727Z,100161.76
2023-07-25T08:15:47.090Z,100155.92
2023-07-25T08:18:16.167Z,100141.48
2023-07-25T08:20:46.177Z,100130.46
2023-07-25T08:23:14.780Z,100121.27
2023-07-25T08:25:42.734Z,100114.34
2023-07-25T08:28:13.363Z,100107.91
2023-07-25T08:30:41.234Z,100100.92
2023-07-25T08:33:09.180Z,100105.75
2023-07-25T08:35:37.224Z,100103.95
2023-07-25T08:38:05.658Z,100100.98
2023-07-25T08:40:33.525Z,100095.71
2023-07-25T08:43:08.762Z,100087.53
2023-07-25T08:45:42.291Z,100077.91
2023-07-25T08:48:14.024Z,100069.48
2023-07-25T08:50:52.439Z,100065.61
2023-07-25T08:53:26.161Z,100058.86
2023-07-25T08:56:02.100Z,100050.34
2023-07-25T08:58:34.784Z,100050.63
2023-07-25T09:01:07.672Z,100052.48
2023-07-25T09:03:35.638Z,100045.61
2023-07-25T09:06:04.141Z,100039.02
2023-07-25T09:08:32.403Z,100030.59
2023-07-25T09:11:00.885Z,100033.58
2023-07-25T09:13:28.993Z,100032.59
2023-07-25T09:16:03.291Z,100031.09
2023-07-25T09:18:39.032Z,100021.42
2023-07-25T09:21:14.265Z,100007.60
2023-07-25T09:24:15.876Z,100007.70
2023-07-25T09:27:18.877Z,100009.92
2023-07-25T09:30:02.044Z,100011.35
2023-07-25T09:32:40.740Z,100008.69
2023-07-25T09:35:11.089Z,99998.71
2023-07-25T09:37:42.955Z,99999.54
2023-07-25T09:40:14.718Z,100002.88
2023-07-25T09:42:54.374Z,99999.67
2023-07-25T09:45:37.208Z,99990.73
2023-07-25T09:48:05.685Z,99991.98
2023-07-25T09:50:36.554Z,99994.45
2023-07-25T09:53:04.370Z,99994.82
2023-07-25T09:55:32.229Z,99990.48
2023-07-25T09:58:02.354Z,99990.23
2023-07-25T10:00:31.638Z,99985.34
2023-07-25T10:03:00.102Z,99980.80
2023-07-25T10:05:30.356Z,99978.36
2023-07-25T10:08:01.212Z,99978.36
2023-07-25T10:10:41.998Z,99977.23
2023-07-25T10:13:25.208Z,99975.27
2023-07-25T10:16:00.588Z,99968.88
2023-07-25T10:18:29.865Z,99962.43
2023-07-25T10:21:02.631Z,99964.45
2023-07-25T10:23:45.032Z,99961.45
2023-07-25T10:26:17.829Z,99951.70
2023-07-25T10:28:45.791Z,99950.92
2023-07-25T10:31:24.798Z,99946.13
2023-07-25T10:33:59.353Z,99945.62
2023-07-25T10:36:34.077Z,99946.21
2023-07-25T10:39:11.772Z,99935.30
2023-07-25T10:41:51.829Z,99926.45
2023-07-25T10:44:52.766Z,99922.05
2023-07-25T10:47:50.045Z,99926.23
2023-07-25T10:50:23.417Z,99919.89
2023-07-25T10:53:13.971Z,99922.92
2023-07-25T10:56:13.221Z,99920.14
2023-07-25T10:59:13.915Z,99914.14
2023-07-25T11:01:47.340Z,99904.01
2023-07-25T11:04:22.340Z,99907.89
2023-07-25T11:06:56.310Z,99912.76
2023-07-25T11:09:40.148Z,99909.95
2023-07-25T11:12:09.243Z,99897.02
2023-07-25T11:14:44.665Z,99895.39
2023-07-25T11:17:20.897Z,99898.61
2023-07-25T11:19:48.923Z,99895.87
2023-07-25T11:22:24.989Z,99892.34
2023-07-25T11:24:57.897Z,99887.67
2023-07-25T11:27:48.784Z,99879.13
2023-07-25T11:30:20.726Z,99872.20
2023-07-25T11:32:53.036Z,99870.64
2023-07-25T11:35:23.553Z,99872.14
2023-07-25T11:37:51.731Z,99870.63
2023-07-25T11:40:23.578Z,99869.68
2023-07-25T11:42:54.746Z,99871.41
2023-07-25T11:45:23.314Z,99865.96
2023-07-25T11:47:54.783Z,99863.84
2023-07-25T11:50:29.369Z,99863.49
2023-07-25T11:52:58.315Z,99860.36
2023-07-25T11:55:29.406Z,99853.38
2023-07-25T11:58:01.302Z,99849.27
2023-07-25T12:00:53.639Z,99849.04
2023-07-25T12:03:42.457Z,99846.27
2023-07-25T12:06:13.439Z,99842.60
2023-07-25T12:08:56.673Z,99839.60
2023-07-25T12:11:31.214Z,99837.57
2023-07-25T12:14:05.830Z,99833.70
2023-07-25T12:16:45.413Z,99826.70
2023-07-25T12:19:14.434Z,99819.39
2023-07-25T12:24:19.151Z,99808.84
2023-07-25T12:26:56.612Z,99803.70
2023-07-25T12:29:28.268Z,99793.73
2023-07-25T12:31:56.753Z,99787.50
2023-07-25T12:34:24.703Z,99783.95
2023-07-25T12:36:55.406Z,99782.60
2023-07-25T12:39:48.507Z,99773.73
2023-07-25T12:42:19.432Z,99765.40
2023-07-25T12:44:50.282Z,99765.27
2023-07-25T12:47:18.139Z,99769.16
2023-07-25T12:49:50.925Z,99768.98
2023-07-25T12:52:20.438Z,99764.91
2023-07-25T12:54:49.430Z,99753.36
2023-07-25T12:57:22.409Z,99753.41
2023-07-25T13:00:04.030Z,99753.94
2023-07-25T13:02:45.560Z,99756.13
2023-07-25T13:05:21.669Z,99762.45
2023-07-25T13:07:54.745Z,99759.64
2023-07-25T13:10:27.752Z,99755.23
2023-07-25T13:13:10.876Z,99755.20
2023-07-25T13:15:45.893Z,99760.19
2023-07-25T13:18:38.954Z,99760.03
2023-07-25T13:21:11.939Z,99757.99
2023-07-25T13:23:44.628Z,99754.55
2023-07-25T13:26:21.181Z,99751.84
2023-07-25T13:28:54.508Z,99760.19
2023-07-25T13:31:42.462Z,99759.50
2023-07-25T13:34:16.346Z,99756.44
2023-07-25T13:36:52.915Z,99753.73
2023-07-25T13:39:28.254Z,99755.10
2023-07-25T13:42:01.550Z,99747.42
2023-07-25T13:44:40.982Z,99744.43
2023-07-25T13:47:15.450Z,99748.23
2023-07-25T13:49:43.482Z,99745.98
2023-07-25T13:52:16.334Z,99749.02
2023-07-25T13:54:48.942Z,99749.54
2023-07-25T13:57:52.577Z,99750.05
2023-07-25T14:00:28.171Z,99745.52
2023-07-25T14:03:04.591Z,99742.61
2023-07-25T14:05:35.727Z,99738.10
2023-07-25T14:08:11.874Z,99727.94
2023-07-25T14:10:45.015Z,99723.10
2023-07-25T14:13:15.921Z,99714.30
2023-07-25T14:15:52.396Z,99716.79
2023-07-25T14:18:31.712Z,99718.61
2023-07-25T14:21:05.520Z,99720.59
2023-07-25T14:23:37.483Z,99715.66
2023-07-25T14:26:08.331Z,99719.98
2023-07-25T14:28:42.542Z,99716.83
2023-07-25T14:31:10.751Z,99711.55
2023-07-25T14:33:43.602Z,99714.52
2023-07-25T14:36:14.770Z,99712.75
2023-07-25T14:38:44.147Z,99718.94
2023-07-25T14:41:22.674Z,99718.64
2023-07-25T14:44:03.948Z,99710.41
2023-07-25T14:46:32.662Z,99707.20
2023-07-25T14:49:01.021Z,99708.98
2023-07-25T14:51:29.293Z,99704.56
2023-07-25T14:54:02.079Z,99703.32
2023-07-25T14:56:43.979Z,99703.64
2023-07-25T14:59:16.886Z,99707.48
2023-07-25T15:01:52.202Z,99706.55
2023-07-25T15:04:28.055Z,99704.34
2023-07-25T15:07:02.784Z,99702.99
2023-07-25T15:09:35.873Z,99705.13
2023-07-25T15:12:21.262Z,99705.46
2023-07-25T15:14:50.657Z,99699.88
2023-07-25T15:17:26.769Z,99696.95
2023-07-25T15:20:07.266Z,99700.91
2023-07-25T15:23:00.447Z,99704.50
2023-07-25T15:25:34.868Z,99704.45
2023-07-25T15:28:14.310Z,99703.94
2023-07-25T15:30:58.117Z,99707.38
2023-07-25T15:33:26.055Z,99710.27
2023-07-25T15:35:56.145Z,99708.32
2023-07-25T15:38:24.219Z,99706.05
2023-07-25T15:40:54.868Z,99704.74
2023-07-25T15:43:27.732Z,99703.08
2023-07-25T15:46:26.966Z,99701.44
2023-07-25T15:49:05.807Z,99701.38
2023-07-25T15:51:38.745Z,99703.48
2023-07-25T15:54:11.936Z,99699.06
2023-07-25T15:56:46.782Z,99694.45
2023-07-25T15:59:23.753Z,99690.48
2023-07-25T16:02:04.221Z,99688.20
2023-07-25T16:04:35.668Z,99685.73
2023-07-25T16:07:19.515Z,99684.95
2023-07-25T16:09:53.361Z,99689.29
2023-07-25T16:12:39.616Z,99688.41
2023-07-25T16:15:11.992Z,99690.79
2023-07-25T16:17:43.083Z,99694.96
2023-07-25T16:20:16.967Z,99692.40
2023-07-25T16:22:49.830Z,99684.37
2023-07-25T16:25:25.812Z,99679.58
2023-07-25T16:27:59.288Z,99674.31
2023-07-25T16:30:33.760Z,99670.70
2023-07-25T16:33:06.843Z,99666.89
2023-07-25T16:35:34.872Z,99671.12
2023-07-25T16:38:17.085Z,99673.85
2023-07-25T16:40:55.799Z,99671.25
2023-07-25T16:43:27.748Z,99673.95
2023-07-25T16:46:03.634Z,99676.11
2023-07-25T16:48:50.052Z,99681.27
2023-07-25T16:51:30.547Z,99679.71
2023-07-25T16:54:02.038Z,99681.13
2023-07-25T16:56:41.374Z,99679.74
2023-07-25T16:59:27.789Z,99681.92
2023-07-25T17:02:04.016Z,99682.40
2023-07-25T17:04:32.132Z,99682.96
2023-07-25T17:07:03.252Z,99684.00
2023-07-25T17:09:53.251Z,99690.25
2023-07-25T17:12:34.129Z,99694.68
2023-07-25T17:15:07.317Z,99693.60
2023-07-25T17:17:37.669Z,99690.54
2023-07-25T17:20:10.414Z,99695.27
2023-07-25T17:22:43.615Z,99703.81
2023-07-25T17:25:19.375Z,99704.97
2023-07-25T17:27:55.084Z,99709.30
2023-07-25T17:30:29.349Z,99714.16
2023-07-25T17:33:02.265Z,99715.66
2023-07-25T17:35:37.567Z,99714.18
2023-07-25T17:38:13.907Z,99715.10
2023-07-25T17:40:47.232Z,99717.05
2023-07-25T17:43:21.569Z,99717.29
2023-07-25T17:46:07.061Z,99718.67
2023-07-25T17:48:58.148Z,99723.33
2023-07-25T17:51:33.395Z,99726.35
2023-07-25T17:54:07.603Z,99725.74
2023-07-25T17:56:40.905Z,99723.85
2023-07-25T17:59:15.748Z,99723.27
2023-07-25T18:02:01.314Z,99722.87
2023-07-25T18:04:34.710Z,99721.84
2023-07-25T18:07:06.178Z,99722.06
2023-07-25T18:09:41.007Z,99719.33
2023-07-25T18:12:15.738Z,99724.31
2023-07-25T18:14:54.164Z,99728.60
2023-07-25T18:17:39.113Z,99735.70
2023-07-25T18:20:10.460Z,99738.45
2023-07-25T18:22:41.724Z,99738.88
2023-07-25T18:25:18.999Z,99733.35
2023-07-25T18:27:47.614Z,99737.16
2023-07-25T18:30:20.472Z,99734.77
2023-07-25T18:33:06.795Z,99735.25
2023-07-25T18:35:38.289Z,99734.26
2023-07-25T18:38:11.920Z,99737.44
2023-07-25T18:40:50.655Z,99738.76
2023-07-25T18:43:23.022Z,99739.95
2023-07-25T18:45:55.809Z,99740.98
2023-07-25T18:48:36.396Z,99749.79
2023-07-25T18:51:09.765Z,99751.21
2023-07-25T18:53:53.344Z,99749.66
2023-07-25T18:56:21.487Z,99746.23
2023-07-25T18:58:52.321Z,99742.13
2023-07-25T19:01:24.514Z,99738.19
2023-07-25T19:03:55.530Z,99738.95
2023-07-25T19:06:29.342Z,99740.19
2023-07-25T19:09:02.119Z,99743.24
2023-07-25T19:11:29.891Z,99742.98
2023-07-25T19:13:57.848Z,99746.27
2023-07-25T19:16:31.947Z,99751.98
2023-07-25T19:19:07.446Z,99757.36
2023-07-25T19:21:35.490Z,99758.53
2023-07-25T19:24:07.658Z,99759.71
2023-07-25T19:26:39.304Z,99765.54
2023-07-25T19:29:20.091Z,99769.22
2023-07-25T19:31:47.948Z,99775.27
2023-07-25T19:34:16.555Z,99773.90
2023-07-25T19:36:48.412Z,99771.81
2023-07-25T19:39:21.591Z,99775.04
2023-07-25T19:42:00.721Z,99777.45
2023-07-25T19:44:43.949Z,99771.67
2023-07-25T19:47:18.891Z,99766.88
2023-07-25T19:49:46.890Z,99766.17
2023-07-25T19:52:26.516Z,99756.53
2023-07-25T19:55:06.865Z,99759.44
2023-07-25T19:57:39.637Z,99763.19
2023-07-25T20:00:15.010Z,99770.14
2023-07-25T20:02:48.925Z,99779.59
2023-07-25T20:05:16.977Z,99793.39
2023-07-25T20:08:02.447Z,99797.40
2023-07-25T20:10:30.658Z,99795.45
2023-07-25T20:12:59.869Z,99789.81
2023-07-25T20:15:33.544Z,99787.46
2023-07-25T20:18:11.383Z,99785.44
2023-07-25T20:20:44.635Z,99782.20
2023-07-25T20:23:14.746Z,99786.55
2023-07-25T20:25:42.722Z,99787.45
2023-07-25T20:28:14.676Z,99784.46
2023-07-25T20:30:47.568Z,99783.68
2023-07-25T20:33:40.623Z,99787.99
2023-07-25T20:36:13.918Z,99785.11
2023-07-25T20:38:48.198Z,99781.80
2023-07-25T20:41:17.441Z,99783.27
2023-07-25T20:43:50.217Z,99787.06
2023-07-25T20:46:31.957Z,99787.29
2023-07-25T20:49:05.000Z,99788.29
2023-07-25T20:51:44.132Z,99792.31
2023-07-25T20:54:15.129Z,99795.51
2023-07-25T20:56:50.318Z,99802.23
2023-07-25T20:59:21.528Z,99807.00
2023-07-25T21:01:49.570Z,99812.74
2023-07-25T21:04:22.645Z,99814.84
2023-07-25T21:06:59.816Z,99814.43
2023-07-25T21:09:49.817Z,99813.83
2023-07-25T21:12:36.713Z,99812.77
2023-07-25T21:15:18.919Z,99812.21
2023-07-25T21:18:02.664Z,99816.67
2023-07-25T21:20:40.912Z,99820.30
2023-07-25T21:23:13.884Z,99821.49
2023-07-25T21:25:47.559Z,99820.70
2023-07-25T21:28:15.833Z,99822.69
2023-07-25T21:31:01.831Z,99821.23
2023-07-25T21:33:44.748Z,99820.83
2023-07-25T21:36:27.374Z,99827.94
2023-07-25T21:39:01.081Z,99828.56
2023-07-25T21:41:36.756Z,99821.68
2023-07-25T21:44:10.022Z,99813.73
2023-07-25T21:46:46.047Z,99816.72
2023-07-25T21:49:22.958Z,99817.52
2023-07-25T21:51:56.866Z,99821.25
2023-07-25T21:54:38.772Z,99822.88
2023-07-25T21:57:09.205Z,99825.92
2023-07-25T21:59:42.487Z,99832.67
2023-07-25T22:02:22.951Z,99839.20
2023-07-25T22:05:06.290Z,99838.90
2023-07-25T22:07:38.858Z,99849.77
2023-07-25T22:10:07.650Z,99853.52
2023-07-25T22:12:42.901Z,99849.88
2023-07-25T22:15:24.103Z,99843.65
2023-07-25T22:17:57.126Z,99844.95
2023-07-25T22:20:50.995Z,99845.80
2023-07-25T22:23:30.884Z,99846.71
2023-07-25T22:26:04.186Z,99848.27
2023-07-25T22:28:46.105Z,99843.98
2023-07-25T22:31:19.597Z,99845.00
2023-07-25T22:33:52.360Z,99840.72
2023-07-25T22:36:22.586Z,99849.00
2023-07-25T22:38:50.884Z,99854.48
2023-07-25T22:41:28.359Z,99854.30
2023-07-25T22:44:04.345Z,99853.80
2023-07-25T22:46:40.074Z,99848.34
2023-07-25T22:49:16.555Z,99848.98
2023-07-25T22:51:44.814Z,99848.45
2023-07-25T22:54:16.747Z,99847.80
2023-07-25T22:56:58.991Z,99844.98
2023-07-25T22:59:37.210Z,99841.34
2023-07-25T23:02:09.991Z,99843.67
2023-07-25T23:04:56.174Z,99841.80
2023-07-25T23:07:30.028Z,99843.98
2023-07-25T23:10:11.882Z,99842.89
2023-07-25T23:12:46.227Z,99841.82
2023-07-25T23:15:19.597Z,99843.56
2023-07-25T23:17:52.813Z,99839.61
2023-07-25T23:20:23.544Z,99838.05
2023-07-25T23:22:58.361Z,99838.92
2023-07-25T23:25:28.474Z,99838.88
2023-07-25T23:27:58.925Z,99840.67
2023-07-25T23:30:38.346Z,99841.51
2023-07-25T23:33:29.729Z,99838.89
2023-07-25T23:36:02.764Z,99854.61
2023-07-25T23:38:33.631Z,99845.42
2023-07-25T23:41:06.398Z,99840.32
2023-07-25T23:43:37.989Z,99847.98
2023-07-25T23:46:14.853Z,99872.46
2023-07-25T23:48:56.302Z,99900.15
2023-07-25T23:51:32.561Z,99915.77
2023-07-25T23:54:06.467Z,99914.06
2023-07-25T23:56:45.195Z,99906.60
2023-07-25T23:59:28.982Z,99908.80
